PWSweather.com
Personal Weather Stations
Station Observations
KVAGLENALL
West Henrico, Glen Allen, VA 23060-6503

West HenricoGlen Allen, VA 23060-6503

Lat: 37.6554, Lon: -77.5693

Elevation: 273

Station Type: Davis Vantage Pro II

www.glenallenweather.com

High Low Average
Temperature 53.9°F12.2°C 41.1°F5.1°C 47.1°F8.4°C
Dew Point 51.3°F10.7°C 19.5°F-6.9°C 29.0°F-1.7°C
Winds 28.0 mph 45.1 kmh 1.0 mph 1.6 kmh 10.0 mph W16.1 kmh W
Wind Gusts 34.3 mph55.2 kmh 4.0 mph6.4 kmh 19.0 mph30.6 kmh
Humidity 92% 38% 50%
Pressure 30.01 in1016.3 mb 29.50 in999.0 mb -
Precipitation 0.00 in0.0 mm - -
Hour Temp Dew Point Humidity Winds Wind Gusts Pressure Precip Precip Rate Daily Precip Total
12:00 AM 54.4°F12.4°C 53.3°F11.8°C 96% 13.0 mph SW20.9 kmh SW 13.1 mph21.1 kmh 29.50 in999.0 mb 0.00 in0.0 mm 0.00 in0.0 mm 0.00 in0.0 mm
12:15 AM 54.0°F12.2°C 52.9°F11.6°C 96% 7.0 mph WSW11.3 kmh WSW 11.1 mph17.9 kmh 29.49 in998.6 mb 0.00 in0.0 mm 0.00 in0.0 mm 0.00 in0.0 mm
12:30 AM 53.6°F12.0°C 52.5°F11.4°C 96% 4.0 mph WSW6.4 kmh WSW 12.1 mph19.5 kmh 29.49 in998.6 mb 0.00 in0.0 mm 0.00 in0.0 mm 0.00 in0.0 mm
12:45 AM 53.6°F12.0°C 52.2°F11.2°C 95% 4.0 mph SW6.4 kmh SW 14.1 mph22.7 kmh 29.50 in999.0 mb 0.00 in0.0 mm 0.00 in0.0 mm 0.00 in0.0 mm
01:00 AM 53.6°F12.0°C 51.3°F10.7°C 92% 19.0 mph WSW30.6 kmh WSW 19.2 mph30.9 kmh 29.50 in999.0 mb 0.00 in0.0 mm 0.00 in0.0 mm 0.00 in0.0 mm
01:15 AM 53.9°F12.2°C 50.4°F10.2°C 88% 8.0 mph WNW12.9 kmh WNW 14.1 mph22.7 kmh 29.52 in999.7 mb 0.01 in0.3 mm 0.04 in1.0 mm 0.01 in0.3 mm
01:30 AM 53.6°F12.0°C 46.2°F7.9°C 76% 15.0 mph NW24.1 kmh NW 20.2 mph32.5 kmh 29.52 in999.7 mb 0.01 in0.3 mm 0.00 in0.0 mm 0.01 in0.3 mm
01:45 AM 53.1°F11.7°C 43.6°F6.4°C 70% 2.0 mph N3.2 kmh N 18.2 mph29.3 kmh 29.55 in1000.7 mb 0.01 in0.3 mm 0.00 in0.0 mm 0.01 in0.3 mm
02:00 AM 51.9°F11.1°C 43.1°F6.2°C 72% 4.0 mph WSW6.4 kmh WSW 20.2 mph32.5 kmh 29.56 in1001.0 mb 0.01 in0.3 mm 0.00 in0.0 mm 0.01 in0.3 mm
02:15 AM 51.0°F10.6°C 43.0°F6.1°C 74% 4.0 mph WNW6.4 kmh WNW 20.2 mph32.5 kmh 29.57 in1001.4 mb 0.01 in0.3 mm 0.00 in0.0 mm 0.01 in0.3 mm
02:30 AM 51.1°F10.6°C 41.3°F5.2°C 69% 2.0 mph WNW3.2 kmh WNW 4.0 mph6.4 kmh 29.57 in1001.4 mb 0.00 in0.0 mm 0.00 in0.0 mm 0.01 in0.3 mm
02:45 AM 50.2°F10.1°C 38.9°F3.8°C 65% 11.0 mph WNW17.7 kmh WNW 17.2 mph27.7 kmh 29.57 in1001.4 mb 0.00 in0.0 mm 0.00 in0.0 mm 0.01 in0.3 mm
03:00 AM 50.0°F10.0°C 37.1°F2.8°C 61% 7.0 mph WSW11.3 kmh WSW 17.2 mph27.7 kmh 29.57 in1001.4 mb 0.00 in0.0 mm 0.00 in0.0 mm 0.01 in0.3 mm
03:15 AM 49.0°F9.4°C 36.6°F2.6°C 62% 5.0 mph WSW8.0 kmh WSW 11.1 mph17.9 kmh 29.57 in1001.4 mb 0.00 in0.0 mm 0.00 in0.0 mm 0.01 in0.3 mm
03:30 AM 48.7°F9.3°C 36.7°F2.6°C 63% 9.0 mph WSW14.5 kmh WSW 22.2 mph35.7 kmh 29.56 in1001.0 mb 0.00 in0.0 mm 0.00 in0.0 mm 0.01 in0.3 mm
03:45 AM 48.3°F9.1°C 35.1°F1.7°C 60% 17.0 mph W27.4 kmh W 17.2 mph27.7 kmh 29.57 in1001.4 mb 0.00 in0.0 mm 0.00 in0.0 mm 0.01 in0.3 mm
04:00 AM 48.1°F8.9°C 34.5°F1.4°C 59% 15.0 mph WSW24.1 kmh WSW 28.3 mph45.5 kmh 29.58 in1001.7 mb 0.00 in0.0 mm 0.00 in0.0 mm 0.01 in0.3 mm
04:15 AM 47.4°F8.6°C 33.8°F1.0°C 59% 14.0 mph NW22.5 kmh NW 14.1 mph22.7 kmh 29.59 in1002.0 mb 0.00 in0.0 mm 0.00 in0.0 mm 0.01 in0.3 mm
04:30 AM 46.6°F8.1°C 33.1°F0.6°C 59% 13.0 mph WSW20.9 kmh WSW 16.2 mph26.1 kmh 29.60 in1002.4 mb 0.00 in0.0 mm 0.00 in0.0 mm 0.01 in0.3 mm
04:45 AM 46.0°F7.8°C 32.9°F0.5°C 60% 3.0 mph W4.8 kmh W 13.1 mph21.1 kmh 29.60 in1002.4 mb 0.00 in0.0 mm 0.00 in0.0 mm 0.01 in0.3 mm
05:00 AM 45.5°F7.5°C 32.0°F0.0°C 59% 6.0 mph W9.7 kmh W 20.2 mph32.5 kmh 29.61 in1002.7 mb 0.00 in0.0 mm 0.00 in0.0 mm 0.01 in0.3 mm
05:15 AM 45.8°F7.7°C 31.0°F-0.6°C 56% 7.0 mph NW11.3 kmh NW 17.2 mph27.7 kmh 29.62 in1003.0 mb 0.00 in0.0 mm 0.00 in0.0 mm 0.01 in0.3 mm
05:30 AM 45.2°F7.3°C 31.3°F-0.4°C 58% 13.0 mph NNW20.9 kmh NNW 17.2 mph27.7 kmh 29.62 in1003.0 mb 0.00 in0.0 mm 0.00 in0.0 mm 0.01 in0.3 mm
05:45 AM 45.2°F7.3°C 31.3°F-0.4°C 58% 4.0 mph SE6.4 kmh SE 11.1 mph17.9 kmh 29.63 in1003.4 mb 0.00 in0.0 mm 0.00 in0.0 mm 0.01 in0.3 mm
06:00 AM 45.2°F7.3°C 31.3°F-0.4°C 58% 8.0 mph W12.9 kmh W 12.1 mph19.5 kmh 29.63 in1003.4 mb 0.00 in0.0 mm 0.00 in0.0 mm 0.01 in0.3 mm
06:15 AM 44.3°F6.8°C 29.2°F-1.6°C 55% 5.0 mph NW8.0 kmh NW 16.2 mph26.1 kmh 29.64 in1003.7 mb 0.00 in0.0 mm 0.00 in0.0 mm 0.01 in0.3 mm
06:30 AM 44.0°F6.7°C 29.4°F-1.4°C 56% 11.0 mph WNW17.7 kmh WNW 13.1 mph21.1 kmh 29.65 in1004.1 mb 0.00 in0.0 mm 0.00 in0.0 mm 0.01 in0.3 mm
06:45 AM 43.4°F6.3°C 29.6°F-1.3°C 58% 4.0 mph NW6.4 kmh NW 14.1 mph22.7 kmh 29.65 in1004.1 mb 0.00 in0.0 mm 0.00 in0.0 mm 0.01 in0.3 mm
07:00 AM 43.1°F6.2°C 29.8°F-1.2°C 59% 4.0 mph WNW6.4 kmh WNW 15.1 mph24.3 kmh 29.65 in1004.1 mb 0.00 in0.0 mm 0.00 in0.0 mm 0.01 in0.3 mm
07:15 AM 42.9°F6.1°C 29.6°F-1.3°C 59% 11.0 mph W17.7 kmh W 15.1 mph24.3 kmh 29.67 in1004.7 mb 0.00 in0.0 mm 0.00 in0.0 mm 0.01 in0.3 mm
07:30 AM 43.1°F6.2°C 29.4°F-1.4°C 58% 7.0 mph NW11.3 kmh NW 15.1 mph24.3 kmh 29.67 in1004.7 mb 0.00 in0.0 mm 0.00 in0.0 mm 0.01 in0.3 mm
07:45 AM 43.1°F6.2°C 29.8°F-1.2°C 59% 9.0 mph WSW14.5 kmh WSW 16.2 mph26.1 kmh 29.68 in1005.1 mb 0.00 in0.0 mm 0.00 in0.0 mm 0.01 in0.3 mm
08:00 AM 43.1°F6.2°C 29.4°F-1.4°C 58% 2.0 mph W3.2 kmh W 16.2 mph26.1 kmh 29.69 in1005.4 mb 0.00 in0.0 mm 0.00 in0.0 mm 0.01 in0.3 mm
08:15 AM 43.0°F6.1°C 29.7°F-1.3°C 59% 7.0 mph NW11.3 kmh NW 17.2 mph27.7 kmh 29.70 in1005.8 mb 0.00 in0.0 mm 0.00 in0.0 mm 0.01 in0.3 mm
08:30 AM 43.2°F6.2°C 28.2°F-2.1°C 55% 6.0 mph NE9.7 kmh NE 21.2 mph34.1 kmh 29.71 in1006.1 mb 0.00 in0.0 mm 0.00 in0.0 mm 0.01 in0.3 mm
08:45 AM 43.6°F6.4°C 28.5°F-1.9°C 55% 13.0 mph NW20.9 kmh NW 16.2 mph26.1 kmh 29.72 in1006.4 mb 0.00 in0.0 mm 0.00 in0.0 mm 0.01 in0.3 mm
09:00 AM 43.8°F6.6°C 27.8°F-2.3°C 53% 13.0 mph NNW20.9 kmh NNW 25.2 mph40.6 kmh 29.72 in1006.4 mb 0.00 in0.0 mm 0.00 in0.0 mm 0.01 in0.3 mm
09:15 AM 44.0°F6.7°C 28.5°F-1.9°C 54% 24.0 mph NW38.6 kmh NW 28.3 mph45.5 kmh 29.73 in1006.8 mb 0.00 in0.0 mm 0.00 in0.0 mm 0.01 in0.3 mm
09:30 AM 44.9°F7.2°C 29.3°F-1.5°C 54% 9.0 mph NW14.5 kmh NW 18.2 mph29.3 kmh 29.73 in1006.8 mb 0.00 in0.0 mm 0.00 in0.0 mm 0.01 in0.3 mm
09:45 AM 46.0°F7.8°C 29.9°F-1.2°C 53% 13.0 mph NW20.9 kmh NW 25.2 mph40.6 kmh 29.73 in1006.8 mb 0.00 in0.0 mm 0.00 in0.0 mm 0.01 in0.3 mm
10:00 AM 46.2°F7.9°C 29.6°F-1.3°C 52% 16.0 mph NW25.7 kmh NW 26.3 mph42.3 kmh 29.74 in1007.1 mb 0.00 in0.0 mm 0.00 in0.0 mm 0.01 in0.3 mm
10:15 AM 45.7°F7.6°C 28.2°F-2.1°C 50% 8.0 mph NW12.9 kmh NW 19.2 mph30.9 kmh 29.75 in1007.5 mb 0.00 in0.0 mm 0.00 in0.0 mm 0.01 in0.3 mm
10:30 AM 47.3°F8.5°C 28.7°F-1.8°C 48% 13.0 mph WNW20.9 kmh WNW 25.2 mph40.6 kmh 29.75 in1007.5 mb 0.00 in0.0 mm 0.00 in0.0 mm 0.01 in0.3 mm
10:45 AM 47.1°F8.4°C 28.5°F-1.9°C 48% 7.0 mph WNW11.3 kmh WNW 27.3 mph43.9 kmh 29.77 in1008.1 mb 0.00 in0.0 mm 0.00 in0.0 mm 0.01 in0.3 mm
11:00 AM 47.8°F8.8°C 29.6°F-1.3°C 49% 20.0 mph NW32.2 kmh NW 20.2 mph32.5 kmh 29.77 in1008.1 mb 0.00 in0.0 mm 0.00 in0.0 mm 0.01 in0.3 mm
11:15 AM 48.1°F8.9°C 28.4°F-2.0°C 46% 19.0 mph NW30.6 kmh NW 30.3 mph48.8 kmh 29.78 in1008.5 mb 0.00 in0.0 mm 0.00 in0.0 mm 0.01 in0.3 mm
11:30 AM 48.0°F8.9°C 28.3°F-2.1°C 46% 8.0 mph NW12.9 kmh NW 23.2 mph37.3 kmh 29.78 in1008.5 mb 0.00 in0.0 mm 0.00 in0.0 mm 0.01 in0.3 mm
11:45 AM 48.4°F9.1°C 28.1°F-2.2°C 45% 16.0 mph NW25.7 kmh NW 25.2 mph40.6 kmh 29.78 in1008.5 mb 0.00 in0.0 mm 0.00 in0.0 mm 0.01 in0.3 mm
12:00 PM 49.4°F9.7°C 29.5°F-1.4°C 46% 8.0 mph NW12.9 kmh NW 18.2 mph29.3 kmh 29.78 in1008.5 mb 0.00 in0.0 mm 0.00 in0.0 mm 0.01 in0.3 mm
12:15 PM 50.1°F10.1°C 29.6°F-1.3°C 45% 19.0 mph N30.6 kmh N 31.3 mph50.4 kmh 29.78 in1008.5 mb 0.00 in0.0 mm 0.00 in0.0 mm 0.01 in0.3 mm
12:30 PM 50.4°F10.2°C 29.3°F-1.5°C 44% 20.0 mph NNE32.2 kmh NNE 23.2 mph37.3 kmh 29.78 in1008.5 mb 0.00 in0.0 mm 0.00 in0.0 mm 0.01 in0.3 mm
12:45 PM 50.2°F10.1°C 28.5°F-1.9°C 43% 15.0 mph NNW24.1 kmh NNW 19.2 mph30.9 kmh 29.79 in1008.8 mb 0.00 in0.0 mm 0.00 in0.0 mm 0.01 in0.3 mm
01:00 PM 50.3°F10.2°C 27.5°F-2.5°C 41% 15.0 mph NNW24.1 kmh NNW 20.2 mph32.5 kmh 29.79 in1008.8 mb 0.00 in0.0 mm 0.00 in0.0 mm 0.01 in0.3 mm
01:15 PM 50.9°F10.5°C 28.6°F-1.9°C 42% 24.0 mph NE38.6 kmh NE 24.2 mph38.9 kmh 29.79 in1008.8 mb 0.00 in0.0 mm 0.00 in0.0 mm 0.01 in0.3 mm
01:30 PM 50.9°F10.5°C 27.4°F-2.6°C 40% 9.0 mph NNW14.5 kmh NNW 19.2 mph30.9 kmh 29.79 in1008.8 mb 0.00 in0.0 mm 0.00 in0.0 mm 0.01 in0.3 mm
01:45 PM 51.7°F10.9°C 28.1°F-2.2°C 40% 17.0 mph WNW27.4 kmh WNW 29.3 mph47.2 kmh 29.79 in1008.8 mb 0.00 in0.0 mm 0.00 in0.0 mm 0.01 in0.3 mm
02:00 PM 51.7°F10.9°C 29.3°F-1.5°C 42% 3.0 mph WNW4.8 kmh WNW 20.2 mph32.5 kmh 29.78 in1008.5 mb 0.00 in0.0 mm 0.00 in0.0 mm 0.01 in0.3 mm
02:15 PM 52.2°F11.2°C 28.6°F-1.9°C 40% 28.0 mph W45.1 kmh W 32.3 mph52.0 kmh 29.78 in1008.5 mb 0.00 in0.0 mm 0.00 in0.0 mm 0.01 in0.3 mm
02:30 PM 52.9°F11.6°C 29.8°F-1.2°C 41% 3.0 mph WNW4.8 kmh WNW 20.2 mph32.5 kmh 29.78 in1008.5 mb 0.00 in0.0 mm 0.00 in0.0 mm 0.01 in0.3 mm
02:45 PM 52.6°F11.4°C 28.3°F-2.1°C 39% 18.0 mph W29.0 kmh W 23.2 mph37.3 kmh 29.78 in1008.5 mb 0.00 in0.0 mm 0.00 in0.0 mm 0.01 in0.3 mm
03:00 PM 51.9°F11.1°C 28.3°F-2.1°C 40% 7.0 mph NW11.3 kmh NW 20.2 mph32.5 kmh 29.78 in1008.5 mb 0.00 in0.0 mm 0.00 in0.0 mm 0.01 in0.3 mm
03:15 PM 52.1°F11.2°C 27.9°F-2.3°C 39% 9.0 mph NW14.5 kmh NW 23.2 mph37.3 kmh 29.78 in1008.5 mb 0.00 in0.0 mm 0.00 in0.0 mm 0.01 in0.3 mm
03:30 PM 52.3°F11.3°C 28.1°F-2.2°C 39% 6.0 mph NW9.7 kmh NW 24.2 mph38.9 kmh 29.79 in1008.8 mb 0.00 in0.0 mm 0.00 in0.0 mm 0.01 in0.3 mm
03:45 PM 51.7°F10.9°C 27.5°F-2.5°C 39% 16.0 mph N25.7 kmh N 26.3 mph42.3 kmh 29.81 in1009.5 mb 0.00 in0.0 mm 0.00 in0.0 mm 0.01 in0.3 mm
04:00 PM 51.3°F10.7°C 26.5°F-3.1°C 38% 12.0 mph NW19.3 kmh NW 22.2 mph35.7 kmh 29.80 in1009.1 mb 0.00 in0.0 mm 0.00 in0.0 mm 0.01 in0.3 mm
04:15 PM 50.9°F10.5°C 27.4°F-2.6°C 40% 8.0 mph NW12.9 kmh NW 23.2 mph37.3 kmh 29.80 in1009.1 mb 0.00 in0.0 mm 0.00 in0.0 mm 0.01 in0.3 mm
04:30 PM 50.6°F10.3°C 27.7°F-2.4°C 41% 4.0 mph SW6.4 kmh SW 15.1 mph24.3 kmh 29.81 in1009.5 mb 0.00 in0.0 mm 0.00 in0.0 mm 0.01 in0.3 mm
04:45 PM 50.2°F10.1°C 27.4°F-2.6°C 41% 1.0 mph WNW1.6 kmh WNW 21.2 mph34.1 kmh 29.82 in1009.8 mb 0.00 in0.0 mm 0.00 in0.0 mm 0.01 in0.3 mm
05:00 PM 50.5°F10.3°C 27.7°F-2.4°C 41% 9.0 mph NW14.5 kmh NW 18.2 mph29.3 kmh 29.83 in1010.2 mb 0.00 in0.0 mm 0.00 in0.0 mm 0.01 in0.3 mm
05:15 PM 49.5°F9.7°C 27.9°F-2.3°C 43% 7.0 mph W11.3 kmh W 23.2 mph37.3 kmh 29.83 in1010.2 mb 0.00 in0.0 mm 0.00 in0.0 mm 0.01 in0.3 mm
05:30 PM 48.7°F9.3°C 27.3°F-2.6°C 43% 9.0 mph NW14.5 kmh NW 34.3 mph55.2 kmh 29.83 in1010.2 mb 0.00 in0.0 mm 0.00 in0.0 mm 0.01 in0.3 mm
05:45 PM 48.3°F9.1°C 27.5°F-2.5°C 44% 16.0 mph NW25.7 kmh NW 21.2 mph34.1 kmh 29.84 in1010.5 mb 0.00 in0.0 mm 0.00 in0.0 mm 0.01 in0.3 mm
06:00 PM 47.9°F8.8°C 26.5°F-3.1°C 43% 9.0 mph NW14.5 kmh NW 24.2 mph38.9 kmh 29.86 in1011.2 mb 0.00 in0.0 mm 0.00 in0.0 mm 0.01 in0.3 mm
06:15 PM 47.4°F8.6°C 26.6°F-3.0°C 44% 17.0 mph NNE27.4 kmh NNE 17.2 mph27.7 kmh 29.87 in1011.5 mb 0.00 in0.0 mm 0.00 in0.0 mm 0.01 in0.3 mm
06:30 PM 47.1°F8.4°C 26.4°F-3.1°C 44% 14.0 mph WNW22.5 kmh WNW 25.2 mph40.6 kmh 29.87 in1011.5 mb 0.00 in0.0 mm 0.00 in0.0 mm 0.01 in0.3 mm
06:45 PM 46.5°F8.1°C 26.4°F-3.1°C 45% 6.0 mph NE9.7 kmh NE 10.1 mph16.3 kmh 29.88 in1011.9 mb 0.00 in0.0 mm 0.00 in0.0 mm 0.01 in0.3 mm
07:00 PM 46.2°F7.9°C 25.5°F-3.6°C 44% 12.0 mph NW19.3 kmh NW 26.3 mph42.3 kmh 29.89 in1012.2 mb 0.00 in0.0 mm 0.00 in0.0 mm 0.01 in0.3 mm
07:15 PM 45.7°F7.6°C 25.6°F-3.6°C 45% 12.0 mph NNW19.3 kmh NNW 24.2 mph38.9 kmh 29.90 in1012.5 mb 0.00 in0.0 mm 0.00 in0.0 mm 0.01 in0.3 mm
07:30 PM 45.0°F7.2°C 25.5°F-3.6°C 46% 4.0 mph W6.4 kmh W 17.2 mph27.7 kmh 29.91 in1012.9 mb 0.00 in0.0 mm 0.00 in0.0 mm 0.01 in0.3 mm
07:45 PM 45.1°F7.3°C 25.1°F-3.8°C 45% 12.0 mph NW19.3 kmh NW 22.2 mph35.7 kmh 29.92 in1013.2 mb 0.00 in0.0 mm 0.00 in0.0 mm 0.01 in0.3 mm
08:00 PM 45.0°F7.2°C 25.0°F-3.9°C 45% 7.0 mph ENE11.3 kmh ENE 9.1 mph14.6 kmh 29.92 in1013.2 mb 0.00 in0.0 mm 0.00 in0.0 mm 0.01 in0.3 mm
08:15 PM 44.9°F7.2°C 25.4°F-3.7°C 46% 8.0 mph NW12.9 kmh NW 13.1 mph21.1 kmh 29.93 in1013.5 mb 0.00 in0.0 mm 0.00 in0.0 mm 0.01 in0.3 mm
08:30 PM 44.4°F6.9°C 25.0°F-3.9°C 46% 7.0 mph NW11.3 kmh NW 7.1 mph11.4 kmh 29.94 in1013.9 mb 0.00 in0.0 mm 0.00 in0.0 mm 0.01 in0.3 mm
08:45 PM 44.2°F6.8°C 24.8°F-4.0°C 46% 4.0 mph WSW6.4 kmh WSW 11.1 mph17.9 kmh 29.94 in1013.9 mb 0.00 in0.0 mm 0.00 in0.0 mm 0.01 in0.3 mm
09:00 PM 43.8°F6.6°C 24.9°F-3.9°C 47% 10.0 mph NW16.1 kmh NW 10.1 mph16.3 kmh 29.95 in1014.2 mb 0.00 in0.0 mm 0.00 in0.0 mm 0.01 in0.3 mm
09:15 PM 43.5°F6.4°C 24.6°F-4.1°C 47% 14.0 mph NNW22.5 kmh NNW 14.1 mph22.7 kmh 29.95 in1014.2 mb 0.00 in0.0 mm 0.00 in0.0 mm 0.01 in0.3 mm
09:30 PM 43.4°F6.3°C 24.0°F-4.4°C 46% 4.0 mph NW6.4 kmh NW 7.1 mph11.4 kmh 29.96 in1014.6 mb 0.00 in0.0 mm 0.00 in0.0 mm 0.01 in0.3 mm
09:45 PM 43.9°F6.6°C 23.4°F-4.8°C 44% 8.0 mph NW12.9 kmh NW 18.2 mph29.3 kmh 29.97 in1014.9 mb 0.00 in0.0 mm 0.00 in0.0 mm 0.01 in0.3 mm
10:00 PM 43.9°F6.6°C 21.8°F-5.7°C 41% 3.0 mph WNW4.8 kmh WNW 26.3 mph42.3 kmh 29.97 in1014.9 mb 0.00 in0.0 mm 0.00 in0.0 mm 0.01 in0.3 mm
10:15 PM 43.8°F6.6°C 20.5°F-6.4°C 39% 23.0 mph NE37.0 kmh NE 24.2 mph38.9 kmh 29.97 in1014.9 mb 0.00 in0.0 mm 0.00 in0.0 mm 0.01 in0.3 mm
10:30 PM 43.7°F6.5°C 20.4°F-6.4°C 39% 7.0 mph NW11.3 kmh NW 14.1 mph22.7 kmh 29.97 in1014.9 mb 0.00 in0.0 mm 0.00 in0.0 mm 0.01 in0.3 mm
10:45 PM 43.5°F6.4°C 19.6°F-6.9°C 38% 21.0 mph NNW33.8 kmh NNW 30.3 mph48.8 kmh 29.98 in1015.2 mb 0.00 in0.0 mm 0.00 in0.0 mm 0.01 in0.3 mm
11:00 PM 43.4°F6.3°C 19.5°F-6.9°C 38% 5.0 mph NW8.0 kmh NW 15.1 mph24.3 kmh 29.99 in1015.6 mb 0.00 in0.0 mm 0.00 in0.0 mm 0.01 in0.3 mm
11:15 PM 43.1°F6.2°C 19.9°F-6.7°C 39% 11.0 mph N17.7 kmh N 24.2 mph38.9 kmh 29.99 in1015.6 mb 0.00 in0.0 mm 0.00 in0.0 mm 0.01 in0.3 mm
11:30 PM 42.7°F5.9°C 19.5°F-6.9°C 39% 11.0 mph NNE17.7 kmh NNE 20.2 mph32.5 kmh 29.99 in1015.6 mb 0.00 in0.0 mm 0.00 in0.0 mm 0.01 in0.3 mm
11:45 PM 42.4°F5.8°C 19.8°F-6.8°C 40% 3.0 mph NNW4.8 kmh NNW 14.1 mph22.7 kmh 30.00 in1015.9 mb 0.00 in0.0 mm 0.00 in0.0 mm 0.01 in0.3 mm